Latest Weather Observations for Ballarat

IDV60801

Issued at 3:22 am EST Monday 6 July 2020 (issued every 10 minutes, with the page automatically refreshed every 10 minutes)

About weather observations | Map of weather stations | Latest weather observations for VIC | Other Formats
Station Details ID: 089002 Name: BALLARAT AERODROME Lat: -37.51 Lon: 143.79 Height: 435.2 m
Data from the previous 72 hours. | See also: Recent months at Ballarat
Date/Time
EST
Temp
°C
App
Temp
°C
Dew
Point
°C
Rel
Hum
%
Delta-T
°C
Wind Press
QNH
hPa
Press
MSL
hPa
Rain since
9am
mm
Dir  Spd
km/h
Gust
km/h
Spd
kts
Gust
kts
06/03:12am 4.2 1.2 4.2 100 0.0 S 9 11 5 6 1029.4 1030.4 0.8
06/03:00am 4.2 1.2 4.2 100 0.0 S 9 13 5 7 1029.4 1030.4 0.8
06/02:53am 4.5 1.6 4.5 100 0.0 S 9 13 5 7 1029.3 1030.3 0.8
06/02:30am 4.9 1.7 4.9 100 0.0 SSW 11 13 6 7 1029.1 1030.1 0.8
06/02:00am 5.8 2.8 5.8 100 0.0 SSW 11 13 6 7 1029.2 1030.2 0.8
06/01:30am 5.3 2.5 5.2 99 0.0 SSW 9 11 5 6 1029.1 1030.1 0.8
06/01:00am 5.5 3.1 5.4 99 0.0 S 7 11 4 6 1029.1 1030.1 0.8
06/12:30am 5.8 3.7 5.7 99 0.0 SSW 6 7 3 4 1029.3 1030.3 0.8
06/12:00am 6.4 3.4 6.1 98 0.1 S 11 17 6 9 1029.2 1030.2 0.8
 
Date/Time
EST
Temp
°C
App
Temp
°C
Dew
Point
°C
Rel
Hum
%
Delta-T
°C
Wind Press
QNH
hPa
Press
MSL
hPa
Rain since
9am
mm
Dir  Spd
km/h
Gust
km/h
Spd
kts
Gust
kts
05/11:30pm 6.6 3.3 6.6 100 0.0 SSW 13 15 7 8 1029.4 1030.4 0.8
05/11:00pm 6.6 4.1 6.6 100 0.0 SSW 9 15 5 8 1029.4 1030.4 0.8
05/10:30pm 6.6 3.3 6.6 100 0.0 SSW 13 17 7 9 1029.4 1030.4 0.8
05/10:27pm 6.6 3.3 6.6 100 0.0 SSW 13 19 7 10 1029.4 1030.4 0.8
05/10:16pm 6.7 3.5 6.7 100 0.0 SSW 13 20 7 11 1029.4 1030.4 0.8
05/10:00pm 6.8 2.5 6.8 100 0.0 SSW 19 26 10 14 1029.3 1030.3 0.8
05/09:30pm 7.0 3.8 7.0 100 0.0 SSW 13 15 7 8 1029.2 1030.2 0.6
05/09:27pm 7.0 3.8 7.0 100 0.0 SSW 13 20 7 11 1029.1 1030.1 0.6
05/09:14pm 6.9 3.3 6.9 100 0.0 SSW 15 20 8 11 1029.0 1030.0 0.6
05/09:00pm 7.1 4.0 7.1 100 0.0 SSW 13 19 7 10 1028.8 1029.8 0.6
05/08:38pm 7.1 3.6 7.1 100 0.0 SSW 15 20 8 11 1028.6 1029.6 0.2
05/08:30pm 7.1 3.6 7.1 100 0.0 SSW 15 26 8 14 1028.5 1029.4 0.2
05/08:00pm 7.1 4.0 7.1 100 0.0 SSW 13 19 7 10 1028.4 1029.3 0.2
05/07:46pm 7.2 4.1 7.2 100 0.0 SSW 13 20 7 11 1028.4 1029.3 0.2
05/07:30pm 7.5 4.8 7.5 100 0.0 SW 11 17 6 9 1028.5 1029.4 0.2
05/07:22pm 7.5 4.5 7.5 100 0.0 SW 13 19 7 10 1028.4 1029.3 0.2
05/07:00pm 7.6 5.0 7.6 100 0.0 SSW 11 19 6 10 1028.1 1029.0 0.2
05/06:43pm 7.7 4.3 7.7 100 0.0 SSW 15 20 8 11 1028.0 1028.9 0.2
05/06:37pm 7.8 4.8 7.8 100 0.0 SSW 13 20 7 11 1027.9 1028.8 0.0
05/06:32pm 7.8 4.4 7.8 100 0.0 SSW 15 20 8 11 1027.7 1028.7 0.0
05/06:30pm 7.8 4.8 7.8 100 0.0 SSW 13 20 7 11 1027.7 1028.7 0.0
05/06:00pm 8.0 4.7 7.9 99 0.0 SSW 15 20 8 11 1027.3 1028.3 0.0
05/05:37pm 8.1 4.8 8.0 99 0.0 SW 15 20 8 11 1027.2 1028.2 0.0
05/05:30pm 8.2 4.9 8.1 99 0.0 SW 15 26 8 14 1027.1 1028.1 0.0
05/05:00pm 8.5 5.6 8.2 98 0.1 SW 13 19 7 10 1026.9 1027.9 0.0
05/04:30pm 8.9 6.1 8.6 98 0.1 SSW 13 17 7 9 1026.8 1027.8 0.0
05/04:14pm 8.9 5.7 8.6 98 0.1 SSW 15 24 8 13 1026.8 1027.8 0.0
05/04:00pm 8.9 5.7 8.6 98 0.1 SSW 15 24 8 13 1026.8 1027.8 0.0
05/03:43pm 9.7 6.1 8.5 92 0.6 SSW 17 24 9 13 1026.7 1027.7 0.0
05/03:30pm 10.2 6.5 8.0 86 1.1 SW 17 20 9 11 1026.7 1027.7 0.0
05/03:00pm 9.6 6.6 9.3 98 0.2 SSW 15 20 8 11 1026.8 1027.8 0.0
05/02:56pm 9.6 6.6 9.3 98 0.2 SSW 15 20 8 11 1026.8 1027.8 0.0
05/02:30pm 9.3 5.5 9.0 98 0.2 SW 19 24 10 13 1026.8 1027.8 0.0
05/02:11pm 9.7 6.7 9.4 98 0.2 SSW 15 22 8 12 1026.7 1027.7 0.0
05/02:00pm 9.4 5.3 8.6 95 0.4 SSW 20 28 11 15 1026.8 1027.8 0.0
05/01:32pm 9.3 5.9 9.0 98 0.2 SSW 17 26 9 14 1026.8 1027.8 0.0
05/01:30pm 9.1 5.2 8.8 98 0.2 SSW 19 28 10 15 1026.8 1027.8 0.0
05/01:20pm 9.2 5.2 8.9 98 0.2 SSW 20 32 11 17 1026.9 1027.9 0.0
05/01:00pm 9.1 5.3 9.0 99 0.0 SSW 19 30 10 16 1027.0 1028.0 0.0
05/12:30pm 9.3 5.3 9.2 99 0.1 SSW 20 30 11 16 1027.2 1028.2 0.0
05/12:17pm 8.9 5.1 8.9 100 0.0 SSW 19 28 10 15 1027.4 1028.4 0.0
05/12:00pm 8.2 4.2 8.2 100 0.0 SSW 19 26 10 14 1027.5 1028.5 0.0
05/11:59am 8.3 4.3 8.3 100 0.0 SSW 19 26 10 14 1027.5 1028.5 0.0
05/11:43am 8.5 4.6 8.5 100 0.0 SSW 19 26 10 14 1027.6 1028.6 0.0
05/11:30am 8.1 4.4 8.1 100 0.0 SSW 17 24 9 13 1027.9 1028.8 0.0
05/11:08am 8.2 4.6 8.2 100 0.0 SSW 17 24 9 13 1028.0 1028.9 0.0
05/11:00am 7.9 3.8 7.9 100 0.0 SSW 19 24 10 13 1028.0 1028.9 0.0
05/10:53am 7.8 4.1 7.8 100 0.0 SSW 17 24 9 13 1028.0 1028.9 0.0
05/10:30am 7.5 3.7 7.5 100 0.0 SW 17 26 9 14 1028.0 1028.9 0.0
05/10:26am 7.6 3.8 7.6 100 0.0 SW 17 26 9 14 1027.9 1028.8 0.0
05/10:00am 7.2 4.5 7.2 100 0.0 SW 11 17 6 9 1027.9 1028.8 0.0
05/09:30am 6.9 3.3 6.9 100 0.0 SW 15 22 8 12 1027.5 1028.5 0.0
05/09:29am 6.9 3.3 6.9 100 0.0 SW 15 22 8 12 1027.4 1028.4 0.0
05/09:06am 6.7 3.1 6.6 99 0.0 SW 15 20 8 11 1027.2 1028.2 0.0
05/09:00am 6.8 3.2 6.7 99 0.0 SW 15 20 8 11 1027.1 1028.1 4.0
05/08:49am 6.8 3.6 6.7 99 0.0 SW 13 17 7 9 1026.9 1027.9 4.0
05/08:30am 6.7 3.1 6.6 99 0.0 SW 15 22 8 12 1026.8 1027.8 4.0
05/08:00am 6.7 3.8 6.7 100 0.0 SW 11 20 6 11 1026.7 1027.7 4.0
05/07:30am 6.8 3.2 6.8 100 0.0 SSW 15 20 8 11 1026.6 1027.5 4.0
05/07:00am 6.7 3.5 6.7 100 0.0 SSW 13 20 7 11 1026.5 1027.4 4.0
05/06:30am 6.7 2.7 6.7 100 0.0 SSW 17 28 9 15 1026.1 1027.0 4.0
05/06:29am 6.7 2.7 6.7 100 0.0 SSW 17 28 9 15 1026.1 1027.0 4.0
05/06:20am 6.7 3.1 6.7 100 0.0 SSW 15 24 8 13 1026.0 1026.9 4.0
05/06:01am 6.7 3.1 6.7 100 0.0 SW 15 24 8 13 1025.8 1026.7 3.8
05/06:00am 6.7 2.7 6.7 100 0.0 SW 17 24 9 13 1025.8 1026.7 3.8
05/05:40am 6.8 2.5 6.8 100 0.0 SW 19 26 10 14 1025.6 1026.5 3.8
05/05:30am 6.9 2.6 6.9 100 0.0 WSW 19 28 10 15 1025.3 1026.3 3.8
05/05:00am 7.1 3.2 7.1 100 0.0 SW 17 22 9 12 1025.0 1026.0 3.8
05/04:30am 7.2 3.7 7.2 100 0.0 WSW 15 24 8 13 1025.1 1026.1 3.4
05/04:00am 7.3 4.2 7.3 100 0.0 SW 13 19 7 10 1025.3 1026.3 3.0
05/03:51am 7.3 3.8 7.3 100 0.0 SW 15 24 8 13 1025.2 1026.2 3.0
05/03:49am 7.3 3.8 7.3 100 0.0 SW 15 24 8 13 1025.2 1026.2 3.0
05/03:30am 7.4 4.3 7.4 100 0.0 WSW 13 20 7 11 1025.3 1026.3 3.0
05/03:00am 7.4 4.3 7.4 100 0.0 SW 13 17 7 9 1025.5 1026.4 2.4
05/02:30am 7.4 4.3 7.4 100 0.0 SW 13 20 7 11 1025.6 1026.5 2.2
05/02:00am 7.5 4.8 7.5 100 0.0 SW 11 17 6 9 1025.7 1026.6 2.2
05/01:56am 7.4 4.7 7.4 100 0.0 SW 11 17 6 9 1025.7 1026.6 2.2
05/01:30am 7.4 4.3 7.4 100 0.0 SSW 13 20 7 11 1025.7 1026.6 2.2
05/01:00am 7.5 4.1 7.5 100 0.0 SW 15 22 8 12 1025.7 1026.6 2.2
05/12:35am 7.5 3.7 7.5 100 0.0 SW 17 22 9 12 1025.8 1026.7 2.2
05/12:30am 7.5 4.1 7.5 100 0.0 SW 15 22 8 12 1025.8 1026.7 2.2
05/12:00am 7.6 5.0 7.6 100 0.0 SSW 11 19 6 10 1025.9 1026.8 2.2
 
Date/Time
EST
Temp
°C
App
Temp
°C
Dew
Point
°C
Rel
Hum
%
Delta-T
°C
Wind Press
QNH
hPa
Press
MSL
hPa
Rain since
9am
mm
Dir  Spd
km/h
Gust
km/h
Spd
kts
Gust
kts
04/11:44pm 7.5 3.3 7.5 100 0.0 SSW 19 28 10 15 1025.9 1026.8 2.2
04/11:32pm 7.5 3.7 7.5 100 0.0 SW 17 26 9 14 1025.9 1026.8 2.2
04/11:30pm 7.5 3.7 7.5 100 0.0 SSW 17 24 9 13 1025.9 1026.8 2.2
04/11:00pm 7.7 3.9 7.7 100 0.0 SW 17 24 9 13 1025.9 1026.8 1.8
04/10:50pm 7.7 3.9 7.7 100 0.0 SW 17 24 9 13 1025.9 1026.8 1.8
04/10:47pm 7.7 3.9 7.7 100 0.0 SW 17 26 9 14 1025.8 1026.7 1.8
04/10:37pm 7.7 3.6 7.7 100 0.0 SSW 19 26 10 14 1025.8 1026.7 1.8
04/10:30pm 7.8 3.5 7.8 100 0.0 SSW 20 28 11 15 1025.8 1026.7 1.8
04/10:00pm 7.8 3.7 7.8 100 0.0 SW 19 30 10 16 1025.8 1026.7 1.8
04/09:50pm 7.9 3.8 7.9 100 0.0 SW 19 28 10 15 1025.8 1026.7 1.8
04/09:30pm 8.1 3.9 8.1 100 0.0 SW 20 32 11 17 1025.6 1026.5 1.8
04/09:00pm 8.3 4.7 8.3 100 0.0 SW 17 24 9 13 1025.3 1026.3 1.8
04/08:30pm 8.3 5.1 8.3 100 0.0 SW 15 28 8 15 1025.1 1026.1 1.6
04/08:00pm 8.3 5.1 8.3 100 0.0 SW 15 22 8 12 1025.1 1026.1 1.4
04/07:30pm 8.2 5.3 8.2 100 0.0 SW 13 20 7 11 1025.0 1026.0 1.4
04/07:29pm 8.3 5.4 8.3 100 0.0 SW 13 20 7 11 1025.0 1026.0 1.4
04/07:05pm 8.3 5.1 8.3 100 0.0 SW 15 28 8 15 1024.8 1025.8 1.4
04/07:00pm 8.3 4.7 8.3 100 0.0 SW 17 30 9 16 1024.8 1025.8 1.4
04/06:30pm 8.5 4.9 8.5 100 0.0 SW 17 26 9 14 1024.7 1025.7 1.0
04/06:25pm 8.5 4.6 8.5 100 0.0 SW 19 26 10 14 1024.7 1025.7 1.0
04/06:19pm 8.5 4.6 8.5 100 0.0 SW 19 26 10 14 1024.7 1025.7 1.0
04/06:00pm 8.6 5.4 8.6 100 0.0 SW 15 26 8 14 1024.6 1025.5 1.0
04/05:54pm 8.6 5.1 8.6 100 0.0 SW 17 26 9 14 1024.5 1025.4 1.0
04/05:37pm 8.7 5.2 8.7 100 0.0 SW 17 22 9 12 1024.2 1025.1 0.8
04/05:30pm 8.8 4.9 8.8 100 0.0 SW 19 28 10 15 1024.2 1025.1 0.8
04/05:00pm 8.9 4.9 8.9 100 0.0 WSW 20 32 11 17 1024.0 1024.9 0.2
04/04:33pm 8.9 5.4 8.8 99 0.0 WSW 17 24 9 13 1023.9 1024.8 0.2
04/04:30pm 9.0 5.9 8.9 99 0.1 WSW 15 24 8 13 1023.8 1024.7 0.2
04/04:14pm 9.2 5.4 8.9 98 0.2 SW 19 28 10 15 1023.9 1024.8 0.2
04/04:00pm 9.4 5.6 9.1 98 0.2 SW 19 28 10 15 1023.8 1024.7 0.2
04/03:30pm 9.9 5.9 9.1 95 0.4 SW 20 30 11 16 1023.7 1024.6 0.2
04/03:00pm 10.2 6.4 9.9 98 0.2 WSW 20 30 11 16 1023.5 1024.4 0.2
04/02:53pm 10.3 6.6 10.0 98 0.2 WSW 20 28 11 15 1023.6 1024.5 0.2
04/02:30pm 9.9 5.3 9.6 98 0.2 SW 24 35 13 19 1023.7 1024.6 0.2
04/02:00pm 9.4 5.7 9.3 99 0.1 SW 19 26 10 14 1023.5 1024.4 0.2
04/01:30pm 9.3 5.4 9.3 100 0.0 WSW 20 30 11 16 1023.7 1024.6 0.2
04/01:00pm 9.6 6.3 9.6 100 0.0 WSW 17 28 9 15 1023.8 1024.7 0.2
04/12:30pm 9.1 4.7 9.1 100 0.0 WSW 22 32 12 17 1024.0 1024.9 0.2
04/12:00pm 8.5 4.4 8.5 100 0.0 WSW 20 32 11 17 1024.6 1025.5 0.2
04/11:55am 8.4 4.2 8.4 100 0.0 WSW 20 28 11 15 1024.7 1025.7 0.2
04/11:31am 8.3 4.3 8.3 100 0.0 WSW 19 26 10 14 1025.0 1026.0 0.2
04/11:30am 8.2 4.2 8.2 100 0.0 WSW 19 32 10 17 1025.0 1026.0 0.2
04/11:23am 8.0 3.7 8.0 100 0.0 WSW 20 32 11 17 1025.0 1026.0 0.2
04/11:00am 7.8 2.7 7.8 100 0.0 W 24 35 13 19 1024.9 1025.9 0.2
04/10:30am 7.2 2.0 7.2 100 0.0 W 24 32 13 17 1024.8 1025.8 0.0
04/10:00am 6.9 2.6 6.9 100 0.0 W 19 26 10 14 1024.7 1025.7 0.0
04/09:30am 6.7 2.3 6.7 100 0.0 W 19 24 10 13 1024.5 1025.4 0.0
04/09:00am 6.2 2.9 6.2 100 0.0 WSW 13 17 7 9 1024.4 1025.3 4.8
04/08:30am 5.9 2.5 5.9 100 0.0 WSW 13 17 7 9 1024.2 1025.1 4.8
04/08:00am 5.5 1.6 5.5 100 0.0 W 15 20 8 11 1024.2 1025.1 4.8
04/07:30am 5.1 1.5 5.1 100 0.0 WSW 13 20 7 11 1023.8 1024.7 4.6
04/07:00am 4.5 2.0 4.5 100 0.0 W 7 13 4 7 1023.4 1024.3 4.6
04/06:30am 4.1 1.1 4.1 100 0.0 W 9 11 5 6 1023.4 1024.3 4.6
04/06:00am 3.9 1.2 3.9 100 0.0 WSW 7 11 4 6 1023.2 1024.1 4.6
04/05:30am 3.4 0.6 3.4 100 0.0 WSW 7 9 4 5 1023.2 1024.1 4.6
04/05:00am 3.2 0.4 3.2 100 0.0 W 7 9 4 5 1023.3 1024.2 4.2
04/04:39am 3.0 -0.2 3.0 100 0.0 W 9 11 5 6 1023.4 1024.3 4.2
04/04:30am 2.8 -0.1 2.8 100 0.0 W 7 9 4 5 1023.4 1024.3 4.2
04/04:00am 2.6 -0.3 2.6 100 0.0 WSW 7 11 4 6 1023.3 1024.2 4.2
04/03:48am 2.6 -0.3 2.6 100 0.0 SW 7 11 4 6 1023.4 1024.3 4.2
04/03:30am 2.5 -1.2 2.5 100 0.0 WSW 11 17 6 9 1023.5 1024.4 4.2
04/03:00am 2.0 -1.4 2.0 100 0.0 WSW 9 13 5 7 1023.6 1024.5 4.2
04/02:30am 2.0 -1.4 2.0 100 0.0 WSW 9 11 5 6 1023.7 1024.6 4.2
04/02:00am 2.6 -1.1 2.6 100 0.0 WSW 11 15 6 8 1023.6 1024.5 4.2
04/01:30am 2.6 -1.4 2.6 100 0.0 SW 13 17 7 9 1023.6 1024.5 4.2
04/01:00am 3.0 -0.2 3.0 100 0.0 WSW 9 13 5 7 1023.5 1024.4 4.2
04/12:38am 3.7 0.6 3.7 100 0.0 SW 9 13 5 7 1023.4 1024.3 4.2
04/12:30am 3.9 0.9 3.9 100 0.0 SW 9 15 5 8 1023.4 1024.3 4.2
04/12:00am 4.4 0.7 4.4 100 0.0 WSW 13 19 7 10 1023.5 1024.4 4.2
 
Date/Time
EST
Temp
°C
App
Temp
°C
Dew
Point
°C
Rel
Hum
%
Delta-T
°C
Wind Press
QNH
hPa
Press
MSL
hPa
Rain since
9am
mm
Dir  Spd
km/h
Gust
km/h
Spd
kts
Gust
kts
03/11:30pm 4.5 0.8 4.5 100 0.0 SW 13 17 7 9 1023.2 1024.1 4.2
03/11:24pm 4.5 0.8 4.5 100 0.0 SW 13 19 7 10 1023.2 1024.1 4.2
03/11:17pm 4.5 0.4 4.5 100 0.0 SW 15 22 8 12 1023.2 1024.1 4.2
03/11:00pm 4.7 -0.1 4.7 100 0.0 SW 19 33 10 18 1023.2 1024.1 4.2
03/10:49pm 4.6 0.2 4.6 100 0.0 SW 17 24 9 13 1023.2 1024.1 4.2
03/10:47pm 4.6 0.2 4.6 100 0.0 SW 17 24 9 13 1023.2 1024.1 4.2
03/10:39pm 4.6 -0.4 4.6 100 0.0 SSW 20 33 11 18 1023.0 1023.9 4.2
03/10:30pm 4.6 -0.4 4.6 100 0.0 SW 20 35 11 19 1022.8 1023.8 4.2
03/10:20pm 4.6 0.2 4.6 100 0.0 SW 17 28 9 15 1022.8 1023.8 4.0
03/10:00pm 4.3 0.6 4.3 100 0.0 SSW 13 17 7 9 1022.8 1023.8 4.0
03/09:31pm 3.9 0.1 3.8 99 0.0 SSW 13 17 7 9 1022.7 1023.6 4.0
03/09:30pm 3.8 0.3 3.7 99 0.0 SSW 11 15 6 8 1022.7 1023.6 4.0
03/09:00pm 3.6 0.1 3.5 99 0.0 SW 11 17 6 9 1022.6 1023.5 4.0
03/08:30pm 3.4 -0.1 3.3 99 0.0 SSW 11 19 6 10 1022.3 1023.2 4.0
03/08:00pm 3.5 0.0 3.4 99 0.0 SSW 11 17 6 9 1022.0 1022.9 4.0
03/07:30pm 3.7 0.2 3.6 99 0.0 SW 11 19 6 10 1021.6 1022.5 4.0
03/07:00pm 3.8 0.3 3.7 99 0.0 SW 11 17 6 9 1021.2 1022.1 4.0
03/06:30pm 3.9 0.5 3.8 99 0.0 SW 11 15 6 8 1020.7 1021.5 4.0
03/06:00pm 4.4 0.7 4.3 99 0.0 SW 13 20 7 11 1020.3 1021.2 4.0
03/05:30pm 4.8 1.1 4.5 98 0.1 SW 13 20 7 11 1020.0 1020.9 4.0
03/05:00pm 5.0 0.6 4.7 98 0.1 SSW 17 26 9 14 1019.6 1020.5 4.0
03/04:30pm 5.3 0.6 5.0 98 0.1 SSW 19 28 10 15 1019.1 1020.0 4.0
03/04:00pm 5.2 -0.1 4.9 98 0.1 SSW 22 33 12 18 1018.9 1019.7 4.0
03/03:45pm 5.3 0.4 5.0 98 0.1 SSW 20 28 11 15 1018.7 1019.5 4.0
03/03:30pm 5.3 0.0 5.2 99 0.0 SSW 22 32 12 17 1018.5 1019.3 4.0
03/03:00pm 5.2 -0.5 5.1 99 0.0 SSW 24 37 13 20 1017.9 1018.8 4.0
03/02:30pm 5.3 0.1 5.3 100 0.0 SSW 22 35 12 19 1017.6 1018.5 4.0
03/02:00pm 5.5 -0.1 5.5 100 0.0 SSW 24 35 13 19 1017.3 1018.2 4.0
03/01:30pm 5.2 -0.4 5.2 100 0.0 SW 24 35 13 19 1017.0 1017.8 4.0
03/01:07pm 5.9 -0.4 5.9 100 0.0 NW 28 52 15 28 1016.2 1017.0 3.2
03/01:00pm 6.7 1.4 6.7 100 0.0 NNW 24 30 13 16 1015.8 1016.6 2.4
03/12:30pm 6.7 1.0 6.7 100 0.0 NNW 26 33 14 18 1016.0 1016.8 1.6
03/12:00pm 6.5 1.1 6.5 100 0.0 N 24 28 13 15 1016.1 1016.9 0.2
03/11:49am 6.4 1.0 6.4 100 0.0 N 24 30 13 16 1016.3 1017.1 0.0
03/11:30am 5.9 -0.4 5.9 100 0.0 N 28 35 15 19 1016.5 1017.3 0.0
03/11:19am 5.8 -0.5 5.8 100 0.0 N 28 33 15 18 1016.7 1017.5 0.0
03/11:06am 5.7 -0.6 5.7 100 0.0 N 28 33 15 18 1016.8 1017.6 0.0
03/11:00am 5.6 -0.7 5.6 100 0.0 N 28 33 15 18 1016.9 1017.7 0.0
03/10:30am 5.2 -1.2 5.2 100 0.0 N 28 35 15 19 1016.9 1017.7 0.0
03/10:00am 5.3 -0.3 5.3 100 0.0 N 24 32 13 17 1017.2 1018.1 0.0
03/09:30am 4.9 -0.8 4.9 100 0.0 N 24 30 13 16 1017.4 1018.3 0.0
03/09:00am 4.6 -0.8 4.6 100 0.0 N 22 30 12 16 1017.6 1018.5 0.2
03/08:30am 4.3 -1.5 4.3 100 0.0 N 24 28 13 15 1017.3 1018.2 0.2
03/08:10am 4.1 -2.1 4.1 100 0.0 N 26 32 14 17 1017.4 1018.3 0.2
03/08:02am 4.2 -2.0 4.2 100 0.0 N 26 32 14 17 1017.4 1018.3 0.2
03/08:00am 4.2 -2.0 4.2 100 0.0 N 26 32 14 17 1017.4 1018.3 0.2
03/07:30am 3.9 -1.2 3.9 100 0.0 NNE 20 28 11 15 1017.5 1018.4 0.2
03/07:00am 3.7 -1.3 3.7 100 0.0 N 19 24 10 13 1017.5 1018.4 0.2
03/06:40am 3.6 -1.6 3.6 100 0.0 N 20 24 11 13 1017.5 1018.4 0.2
03/06:30am 3.8 -1.4 3.8 100 0.0 N 20 24 11 13 1017.2 1018.1 0.2
03/06:14am 3.9 -1.2 3.9 100 0.0 N 20 24 11 13 1017.3 1018.2 0.2
03/06:00am 3.8 -1.2 3.8 100 0.0 N 19 24 10 13 1017.3 1018.2 0.2
03/05:40am 3.7 -1.5 3.7 100 0.0 N 20 26 11 14 1017.3 1018.2 0.2
03/05:30am 3.7 -1.5 3.7 100 0.0 N 20 26 11 14 1017.2 1018.1 0.2
03/05:28am 3.7 -1.5 3.7 100 0.0 NNE 20 26 11 14 1017.2 1018.1 0.2
03/05:00am 4.0 -1.1 4.0 100 0.0 N 20 26 11 14 1017.2 1018.1 0.2
03/04:30am 3.9 -1.0 3.9 100 0.0 N 19 24 10 13 1017.2 1018.1 0.2
03/04:00am 4.2 -0.7 4.2 100 0.0 N 19 22 10 12 1017.1 1018.0 0.2
03/03:30am 4.0 -0.2 4.0 100 0.0 N 15 19 8 10 1017.3 1018.2 0.2

Other formats

Comma delimited format used in spreadsheet applications
http://www.bom.gov.au/fwo/IDV60801/IDV60801.94852.axf

JavaScript Object Notation format (JSON) in row-major order
http://www.bom.gov.au/fwo/IDV60801/IDV60801.94852.json

Data quality

Most of these data are generated automatically and are frequently updated. Quality checks on data are not normally performed. It is possible for incorrect values to appear. Refer to information at About Latest Weather Observations and please check the disclaimer before using these data.